sensor_id;sensor_type;location;lat;lon;timestamp;P1;durP1;ratioP1;P2;durP2;ratioP2
11151;SDS011;5630;49.342;10.802;2023-04-07T00:00:01;14.40;;;12.00;;
11151;SDS011;5630;49.342;10.802;2023-04-07T00:02:28;15.43;;;11.93;;
11151;SDS011;5630;49.342;10.802;2023-04-07T00:04:54;19.63;;;12.27;;
11151;SDS011;5630;49.342;10.802;2023-04-07T00:07:22;15.97;;;11.33;;
11151;SDS011;5630;49.342;10.802;2023-04-07T00:09:48;14.87;;;11.43;;
11151;SDS011;5630;49.342;10.802;2023-04-07T00:12:13;15.60;;;11.57;;
11151;SDS011;5630;49.342;10.802;2023-04-07T00:14:39;12.77;;;10.87;;
11151;SDS011;5630;49.342;10.802;2023-04-07T00:17:04;13.80;;;11.60;;
11151;SDS011;5630;49.342;10.802;2023-04-07T00:19:30;13.50;;;11.07;;
11151;SDS011;5630;49.342;10.802;2023-04-07T00:21:57;19.77;;;11.13;;
11151;SDS011;5630;49.342;10.802;2023-04-07T00:24:23;16.90;;;12.30;;
11151;SDS011;5630;49.342;10.802;2023-04-07T00:26:48;15.27;;;11.27;;
11151;SDS011;5630;49.342;10.802;2023-04-07T00:29:14;14.27;;;11.33;;
11151;SDS011;5630;49.342;10.802;2023-04-07T00:31:39;15.03;;;11.47;;
11151;SDS011;5630;49.342;10.802;2023-04-07T00:34:05;15.33;;;11.83;;
11151;SDS011;5630;49.342;10.802;2023-04-07T00:36:31;15.47;;;11.93;;
11151;SDS011;5630;49.342;10.802;2023-04-07T00:38:56;14.07;;;10.90;;
11151;SDS011;5630;49.342;10.802;2023-04-07T00:41:22;17.67;;;11.80;;
11151;SDS011;5630;49.342;10.802;2023-04-07T00:43:48;15.63;;;11.10;;
11151;SDS011;5630;49.342;10.802;2023-04-07T00:46:15;14.93;;;11.87;;
11151;SDS011;5630;49.342;10.802;2023-04-07T00:48:41;15.53;;;11.13;;
11151;SDS011;5630;49.342;10.802;2023-04-07T00:51:07;14.03;;;11.27;;
11151;SDS011;5630;49.342;10.802;2023-04-07T00:53:33;15.17;;;10.50;;
11151;SDS011;5630;49.342;10.802;2023-04-07T00:55:58;13.07;;;11.33;;
11151;SDS011;5630;49.342;10.802;2023-04-07T00:58:24;14.07;;;12.20;;
11151;SDS011;5630;49.342;10.802;2023-04-07T01:01:08;14.67;;;11.93;;
11151;SDS011;5630;49.342;10.802;2023-04-07T01:03:48;15.33;;;11.80;;
11151;SDS011;5630;49.342;10.802;2023-04-07T01:06:21;17.27;;;12.27;;
11151;SDS011;5630;49.342;10.802;2023-04-07T01:08:56;14.63;;;11.47;;
11151;SDS011;5630;49.342;10.802;2023-04-07T01:11:54;14.43;;;11.97;;
11151;SDS011;5630;49.342;10.802;2023-04-07T01:14:31;15.70;;;11.20;;
11151;SDS011;5630;49.342;10.802;2023-04-07T01:17:02;16.80;;;11.93;;
11151;SDS011;5630;49.342;10.802;2023-04-07T01:19:46;16.30;;;11.87;;
11151;SDS011;5630;49.342;10.802;2023-04-07T01:22:16;18.37;;;13.50;;
11151;SDS011;5630;49.342;10.802;2023-04-07T01:28:05;16.27;;;12.83;;
11151;SDS011;5630;49.342;10.802;2023-04-07T01:30:39;14.50;;;12.63;;
11151;SDS011;5630;49.342;10.802;2023-04-07T01:33:08;16.57;;;13.30;;
11151;SDS011;5630;49.342;10.802;2023-04-07T01:35:35;14.80;;;12.17;;
11151;SDS011;5630;49.342;10.802;2023-04-07T01:38:03;15.73;;;12.67;;
11151;SDS011;5630;49.342;10.802;2023-04-07T01:40:29;17.93;;;12.93;;
11151;SDS011;5630;49.342;10.802;2023-04-07T01:42:57;16.20;;;12.40;;
11151;SDS011;5630;49.342;10.802;2023-04-07T01:45:24;15.57;;;11.80;;
11151;SDS011;5630;49.342;10.802;2023-04-07T01:47:51;17.47;;;12.20;;
11151;SDS011;5630;49.342;10.802;2023-04-07T01:50:18;14.23;;;11.20;;
11151;SDS011;5630;49.342;10.802;2023-04-07T01:52:45;14.87;;;12.67;;
11151;SDS011;5630;49.342;10.802;2023-04-07T01:55:11;14.93;;;12.90;;
11151;SDS011;5630;49.342;10.802;2023-04-07T01:57:37;17.93;;;13.20;;
11151;SDS011;5630;49.342;10.802;2023-04-07T02:00:03;17.53;;;13.27;;
11151;SDS011;5630;49.342;10.802;2023-04-07T02:02:30;15.53;;;12.50;;
11151;SDS011;5630;49.342;10.802;2023-04-07T02:05:03;18.63;;;13.13;;
11151;SDS011;5630;49.342;10.802;2023-04-07T02:07:49;17.13;;;13.23;;
11151;SDS011;5630;49.342;10.802;2023-04-07T02:10:20;16.73;;;13.17;;
11151;SDS011;5630;49.342;10.802;2023-04-07T02:12:48;19.17;;;13.20;;
11151;SDS011;5630;49.342;10.802;2023-04-07T02:15:14;17.30;;;12.83;;
11151;SDS011;5630;49.342;10.802;2023-04-07T02:17:41;15.67;;;12.67;;
11151;SDS011;5630;49.342;10.802;2023-04-07T02:20:10;15.63;;;12.43;;
11151;SDS011;5630;49.342;10.802;2023-04-07T02:22:37;18.97;;;14.10;;
11151;SDS011;5630;49.342;10.802;2023-04-07T02:25:25;14.90;;;12.37;;
11151;SDS011;5630;49.342;10.802;2023-04-07T02:27:56;16.67;;;13.27;;
11151;SDS011;5630;49.342;10.802;2023-04-07T02:30:22;17.13;;;13.10;;
11151;SDS011;5630;49.342;10.802;2023-04-07T02:32:49;17.77;;;12.47;;
11151;SDS011;5630;49.342;10.802;2023-04-07T02:35:14;17.00;;;13.00;;
11151;SDS011;5630;49.342;10.802;2023-04-07T02:37:41;18.47;;;13.67;;
11151;SDS011;5630;49.342;10.802;2023-04-07T02:40:07;17.17;;;12.93;;
11151;SDS011;5630;49.342;10.802;2023-04-07T02:42:33;17.27;;;12.60;;
11151;SDS011;5630;49.342;10.802;2023-04-07T02:45:00;17.87;;;13.00;;
11151;SDS011;5630;49.342;10.802;2023-04-07T02:47:26;16.00;;;13.30;;
11151;SDS011;5630;49.342;10.802;2023-04-07T02:49:51;16.07;;;12.90;;
11151;SDS011;5630;49.342;10.802;2023-04-07T02:52:17;15.50;;;12.20;;
11151;SDS011;5630;49.342;10.802;2023-04-07T02:54:42;17.07;;;13.03;;
11151;SDS011;5630;49.342;10.802;2023-04-07T02:57:08;16.17;;;12.70;;
11151;SDS011;5630;49.342;10.802;2023-04-07T02:59:34;17.40;;;13.70;;
11151;SDS011;5630;49.342;10.802;2023-04-07T03:01:59;16.33;;;13.03;;
11151;SDS011;5630;49.342;10.802;2023-04-07T03:04:25;15.03;;;12.47;;
11151;SDS011;5630;49.342;10.802;2023-04-07T03:06:51;17.40;;;12.90;;
11151;SDS011;5630;49.342;10.802;2023-04-07T03:09:17;16.93;;;12.30;;
11151;SDS011;5630;49.342;10.802;2023-04-07T03:11:42;16.27;;;12.70;;
11151;SDS011;5630;49.342;10.802;2023-04-07T03:14:08;15.30;;;13.27;;
11151;SDS011;5630;49.342;10.802;2023-04-07T03:16:33;16.00;;;12.23;;
11151;SDS011;5630;49.342;10.802;2023-04-07T03:18:59;16.70;;;11.97;;
11151;SDS011;5630;49.342;10.802;2023-04-07T03:21:25;15.10;;;11.40;;
11151;SDS011;5630;49.342;10.802;2023-04-07T03:23:52;14.90;;;11.80;;
11151;SDS011;5630;49.342;10.802;2023-04-07T03:26:18;15.00;;;11.80;;
11151;SDS011;5630;49.342;10.802;2023-04-07T03:28:44;14.30;;;11.90;;
11151;SDS011;5630;49.342;10.802;2023-04-07T03:31:10;13.83;;;11.57;;
11151;SDS011;5630;49.342;10.802;2023-04-07T03:33:35;14.17;;;10.50;;
11151;SDS011;5630;49.342;10.802;2023-04-07T03:36:01;13.80;;;11.60;;
11151;SDS011;5630;49.342;10.802;2023-04-07T03:38:26;13.40;;;11.23;;
11151;SDS011;5630;49.342;10.802;2023-04-07T03:40:52;14.43;;;11.47;;
11151;SDS011;5630;49.342;10.802;2023-04-07T03:43:18;13.93;;;11.07;;
11151;SDS011;5630;49.342;10.802;2023-04-07T03:45:43;13.40;;;11.50;;
11151;SDS011;5630;49.342;10.802;2023-04-07T03:48:10;15.13;;;11.67;;
11151;SDS011;5630;49.342;10.802;2023-04-07T03:50:39;14.97;;;11.73;;
11151;SDS011;5630;49.342;10.802;2023-04-07T03:53:06;13.13;;;11.40;;
11151;SDS011;5630;49.342;10.802;2023-04-07T03:55:32;14.37;;;11.43;;
11151;SDS011;5630;49.342;10.802;2023-04-07T03:57:58;14.93;;;12.00;;
11151;SDS011;5630;49.342;10.802;2023-04-07T04:00:24;16.33;;;12.03;;
11151;SDS011;5630;49.342;10.802;2023-04-07T04:02:50;13.90;;;12.00;;
11151;SDS011;5630;49.342;10.802;2023-04-07T04:05:16;13.27;;;11.33;;
11151;SDS011;5630;49.342;10.802;2023-04-07T04:07:42;13.43;;;12.07;;
11151;SDS011;5630;49.342;10.802;2023-04-07T04:10:08;14.17;;;11.70;;
11151;SDS011;5630;49.342;10.802;2023-04-07T04:12:33;16.00;;;12.20;;
11151;SDS011;5630;49.342;10.802;2023-04-07T04:14:59;15.03;;;11.27;;
11151;SDS011;5630;49.342;10.802;2023-04-07T04:17:25;15.80;;;11.97;;
11151;SDS011;5630;49.342;10.802;2023-04-07T04:19:50;13.30;;;11.27;;
11151;SDS011;5630;49.342;10.802;2023-04-07T04:22:16;14.77;;;11.53;;
11151;SDS011;5630;49.342;10.802;2023-04-07T04:24:42;12.83;;;11.37;;
11151;SDS011;5630;49.342;10.802;2023-04-07T04:27:07;14.23;;;11.83;;
11151;SDS011;5630;49.342;10.802;2023-04-07T04:29:33;15.90;;;12.03;;
11151;SDS011;5630;49.342;10.802;2023-04-07T04:31:58;15.67;;;11.80;;
11151;SDS011;5630;49.342;10.802;2023-04-07T04:34:24;14.43;;;11.87;;
11151;SDS011;5630;49.342;10.802;2023-04-07T04:36:50;15.13;;;12.13;;
11151;SDS011;5630;49.342;10.802;2023-04-07T04:39:15;15.77;;;11.57;;
11151;SDS011;5630;49.342;10.802;2023-04-07T04:41:41;15.37;;;11.90;;
11151;SDS011;5630;49.342;10.802;2023-04-07T04:44:06;15.73;;;12.37;;
11151;SDS011;5630;49.342;10.802;2023-04-07T04:46:32;14.23;;;11.97;;
11151;SDS011;5630;49.342;10.802;2023-04-07T04:48:57;14.47;;;10.93;;
11151;SDS011;5630;49.342;10.802;2023-04-07T04:51:23;12.73;;;11.40;;
11151;SDS011;5630;49.342;10.802;2023-04-07T04:53:50;13.30;;;10.90;;
11151;SDS011;5630;49.342;10.802;2023-04-07T04:56:15;12.93;;;10.80;;
11151;SDS011;5630;49.342;10.802;2023-04-07T04:58:41;14.37;;;11.80;;
11151;SDS011;5630;49.342;10.802;2023-04-07T05:01:10;14.13;;;11.60;;
11151;SDS011;5630;49.342;10.802;2023-04-07T05:03:36;14.90;;;11.07;;
11151;SDS011;5630;49.342;10.802;2023-04-07T05:06:02;13.77;;;11.90;;
11151;SDS011;5630;49.342;10.802;2023-04-07T05:08:27;16.83;;;11.60;;
11151;SDS011;5630;49.342;10.802;2023-04-07T05:10:53;18.60;;;14.20;;
11151;SDS011;5630;49.342;10.802;2023-04-07T05:13:19;17.70;;;13.37;;
11151;SDS011;5630;49.342;10.802;2023-04-07T05:15:45;14.93;;;12.10;;
11151;SDS011;5630;49.342;10.802;2023-04-07T05:18:11;17.43;;;13.27;;
11151;SDS011;5630;49.342;10.802;2023-04-07T05:20:36;17.03;;;11.87;;
11151;SDS011;5630;49.342;10.802;2023-04-07T05:23:02;17.87;;;12.57;;
11151;SDS011;5630;49.342;10.802;2023-04-07T05:25:28;14.33;;;11.97;;
11151;SDS011;5630;49.342;10.802;2023-04-07T05:27:54;16.93;;;12.57;;
11151;SDS011;5630;49.342;10.802;2023-04-07T05:30:19;17.43;;;12.40;;
11151;SDS011;5630;49.342;10.802;2023-04-07T05:32:45;14.37;;;11.73;;
11151;SDS011;5630;49.342;10.802;2023-04-07T05:35:11;14.67;;;12.33;;
11151;SDS011;5630;49.342;10.802;2023-04-07T05:37:36;14.57;;;12.47;;
11151;SDS011;5630;49.342;10.802;2023-04-07T05:40:02;15.10;;;12.20;;
11151;SDS011;5630;49.342;10.802;2023-04-07T05:42:27;18.83;;;12.23;;
11151;SDS011;5630;49.342;10.802;2023-04-07T05:44:53;16.13;;;12.10;;
11151;SDS011;5630;49.342;10.802;2023-04-07T05:47:19;14.87;;;12.17;;
11151;SDS011;5630;49.342;10.802;2023-04-07T05:49:45;15.80;;;12.20;;
11151;SDS011;5630;49.342;10.802;2023-04-07T05:52:12;15.27;;;11.53;;
11151;SDS011;5630;49.342;10.802;2023-04-07T05:54:37;15.07;;;12.13;;
11151;SDS011;5630;49.342;10.802;2023-04-07T05:57:05;14.33;;;10.53;;
11151;SDS011;5630;49.342;10.802;2023-04-07T05:59:31;14.33;;;11.10;;
11151;SDS011;5630;49.342;10.802;2023-04-07T06:01:57;12.97;;;11.33;;
11151;SDS011;5630;49.342;10.802;2023-04-07T06:04:22;13.53;;;11.70;;
11151;SDS011;5630;49.342;10.802;2023-04-07T06:06:48;13.07;;;11.40;;
11151;SDS011;5630;49.342;10.802;2023-04-07T06:09:13;14.87;;;11.83;;
11151;SDS011;5630;49.342;10.802;2023-04-07T06:11:39;15.37;;;12.57;;
11151;SDS011;5630;49.342;10.802;2023-04-07T06:14:05;16.60;;;12.53;;
11151;SDS011;5630;49.342;10.802;2023-04-07T06:16:30;16.27;;;12.10;;
11151;SDS011;5630;49.342;10.802;2023-04-07T06:18:56;15.90;;;12.40;;
11151;SDS011;5630;49.342;10.802;2023-04-07T06:21:22;16.27;;;13.43;;
11151;SDS011;5630;49.342;10.802;2023-04-07T06:23:48;15.23;;;12.73;;
11151;SDS011;5630;49.342;10.802;2023-04-07T06:26:14;15.93;;;13.20;;
11151;SDS011;5630;49.342;10.802;2023-04-07T06:28:40;17.77;;;13.57;;
11151;SDS011;5630;49.342;10.802;2023-04-07T06:31:06;14.43;;;12.93;;
11151;SDS011;5630;49.342;10.802;2023-04-07T06:33:32;15.30;;;12.67;;
11151;SDS011;5630;49.342;10.802;2023-04-07T06:35:58;15.77;;;13.47;;
11151;SDS011;5630;49.342;10.802;2023-04-07T06:38:23;18.63;;;13.47;;
11151;SDS011;5630;49.342;10.802;2023-04-07T06:40:49;14.80;;;12.70;;
11151;SDS011;5630;49.342;10.802;2023-04-07T06:43:15;16.73;;;13.00;;
11151;SDS011;5630;49.342;10.802;2023-04-07T06:45:41;16.70;;;13.33;;
11151;SDS011;5630;49.342;10.802;2023-04-07T06:48:06;14.70;;;12.90;;
11151;SDS011;5630;49.342;10.802;2023-04-07T06:50:32;18.90;;;13.30;;
11151;SDS011;5630;49.342;10.802;2023-04-07T06:52:57;17.17;;;13.60;;
11151;SDS011;5630;49.342;10.802;2023-04-07T06:55:23;17.30;;;14.37;;
11151;SDS011;5630;49.342;10.802;2023-04-07T06:57:49;16.50;;;12.50;;
11151;SDS011;5630;49.342;10.802;2023-04-07T07:00:16;15.67;;;12.90;;
11151;SDS011;5630;49.342;10.802;2023-04-07T07:02:42;20.20;;;14.27;;
11151;SDS011;5630;49.342;10.802;2023-04-07T07:05:08;15.50;;;12.60;;
11151;SDS011;5630;49.342;10.802;2023-04-07T07:07:35;14.73;;;13.10;;
11151;SDS011;5630;49.342;10.802;2023-04-07T07:10:01;14.20;;;12.50;;
11151;SDS011;5630;49.342;10.802;2023-04-07T07:12:27;16.70;;;14.07;;
11151;SDS011;5630;49.342;10.802;2023-04-07T07:14:52;16.60;;;12.90;;
11151;SDS011;5630;49.342;10.802;2023-04-07T07:17:18;16.73;;;13.57;;
11151;SDS011;5630;49.342;10.802;2023-04-07T07:19:43;16.30;;;12.67;;
11151;SDS011;5630;49.342;10.802;2023-04-07T07:22:09;14.67;;;12.50;;
11151;SDS011;5630;49.342;10.802;2023-04-07T07:24:35;16.73;;;12.53;;
11151;SDS011;5630;49.342;10.802;2023-04-07T07:27:01;17.07;;;12.97;;
11151;SDS011;5630;49.342;10.802;2023-04-07T07:29:27;16.80;;;12.43;;
11151;SDS011;5630;49.342;10.802;2023-04-07T07:31:53;16.60;;;14.03;;
11151;SDS011;5630;49.342;10.802;2023-04-07T07:34:18;16.97;;;12.83;;
11151;SDS011;5630;49.342;10.802;2023-04-07T07:36:44;17.47;;;13.57;;
11151;SDS011;5630;49.342;10.802;2023-04-07T07:39:10;16.13;;;12.90;;
11151;SDS011;5630;49.342;10.802;2023-04-07T07:41:35;14.27;;;12.43;;
11151;SDS011;5630;49.342;10.802;2023-04-07T07:44:01;14.50;;;12.57;;
11151;SDS011;5630;49.342;10.802;2023-04-07T07:46:26;14.00;;;12.50;;
11151;SDS011;5630;49.342;10.802;2023-04-07T07:48:52;14.43;;;12.23;;
11151;SDS011;5630;49.342;10.802;2023-04-07T07:51:18;14.20;;;12.63;;
11151;SDS011;5630;49.342;10.802;2023-04-07T07:53:43;15.40;;;13.07;;
11151;SDS011;5630;49.342;10.802;2023-04-07T07:56:09;14.70;;;12.73;;
11151;SDS011;5630;49.342;10.802;2023-04-07T07:58:35;13.60;;;12.13;;
11151;SDS011;5630;49.342;10.802;2023-04-07T08:01:01;15.40;;;13.13;;
11151;SDS011;5630;49.342;10.802;2023-04-07T08:03:26;16.93;;;13.13;;
11151;SDS011;5630;49.342;10.802;2023-04-07T08:05:52;14.77;;;11.90;;
11151;SDS011;5630;49.342;10.802;2023-04-07T08:08:18;18.20;;;13.00;;
11151;SDS011;5630;49.342;10.802;2023-04-07T08:10:43;13.07;;;11.37;;
11151;SDS011;5630;49.342;10.802;2023-04-07T08:13:09;13.57;;;12.13;;
11151;SDS011;5630;49.342;10.802;2023-04-07T08:15:34;13.80;;;12.30;;
11151;SDS011;5630;49.342;10.802;2023-04-07T08:18:00;12.77;;;11.17;;
11151;SDS011;5630;49.342;10.802;2023-04-07T08:20:28;13.53;;;11.97;;
11151;SDS011;5630;49.342;10.802;2023-04-07T08:22:54;16.33;;;12.37;;
11151;SDS011;5630;49.342;10.802;2023-04-07T08:25:20;13.27;;;11.67;;
11151;SDS011;5630;49.342;10.802;2023-04-07T08:27:45;14.03;;;12.37;;
11151;SDS011;5630;49.342;10.802;2023-04-07T08:30:11;13.70;;;12.27;;
11151;SDS011;5630;49.342;10.802;2023-04-07T08:32:38;14.03;;;12.50;;
11151;SDS011;5630;49.342;10.802;2023-04-07T08:35:08;14.23;;;12.73;;
11151;SDS011;5630;49.342;10.802;2023-04-07T08:37:34;14.23;;;11.80;;
11151;SDS011;5630;49.342;10.802;2023-04-07T08:40:00;13.67;;;12.23;;
11151;SDS011;5630;49.342;10.802;2023-04-07T08:42:28;17.33;;;13.20;;
11151;SDS011;5630;49.342;10.802;2023-04-07T08:44:55;17.07;;;12.90;;
11151;SDS011;5630;49.342;10.802;2023-04-07T08:47:23;16.83;;;12.13;;
11151;SDS011;5630;49.342;10.802;2023-04-07T08:49:51;14.37;;;12.87;;
11151;SDS011;5630;49.342;10.802;2023-04-07T08:52:17;14.17;;;12.67;;
11151;SDS011;5630;49.342;10.802;2023-04-07T08:54:47;13.20;;;11.90;;
11151;SDS011;5630;49.342;10.802;2023-04-07T08:57:13;13.73;;;12.30;;
11151;SDS011;5630;49.342;10.802;2023-04-07T08:59:41;13.80;;;12.23;;
11151;SDS011;5630;49.342;10.802;2023-04-07T09:02:09;15.50;;;12.63;;
11151;SDS011;5630;49.342;10.802;2023-04-07T09:04:35;13.20;;;11.77;;
11151;SDS011;5630;49.342;10.802;2023-04-07T09:07:02;14.07;;;11.83;;
11151;SDS011;5630;49.342;10.802;2023-04-07T09:09:28;14.00;;;12.50;;
11151;SDS011;5630;49.342;10.802;2023-04-07T09:11:53;13.93;;;12.43;;
11151;SDS011;5630;49.342;10.802;2023-04-07T09:14:20;14.53;;;12.23;;
11151;SDS011;5630;49.342;10.802;2023-04-07T09:16:45;14.97;;;13.33;;
11151;SDS011;5630;49.342;10.802;2023-04-07T09:19:11;15.07;;;12.13;;
11151;SDS011;5630;49.342;10.802;2023-04-07T09:22:09;13.60;;;12.13;;
11151;SDS011;5630;49.342;10.802;2023-04-07T09:24:28;13.83;;;12.20;;
11151;SDS011;5630;49.342;10.802;2023-04-07T09:27:14;13.97;;;12.50;;
11151;SDS011;5630;49.342;10.802;2023-04-07T09:29:43;14.13;;;12.27;;
11151;SDS011;5630;49.342;10.802;2023-04-07T09:32:10;13.43;;;12.13;;
11151;SDS011;5630;49.342;10.802;2023-04-07T09:34:38;14.27;;;12.40;;
11151;SDS011;5630;49.342;10.802;2023-04-07T09:37:05;14.87;;;13.37;;
11151;SDS011;5630;49.342;10.802;2023-04-07T09:39:33;15.23;;;12.60;;
11151;SDS011;5630;49.342;10.802;2023-04-07T09:42:12;15.20;;;12.30;;
11151;SDS011;5630;49.342;10.802;2023-04-07T09:44:38;14.70;;;12.67;;
11151;SDS011;5630;49.342;10.802;2023-04-07T09:47:07;15.27;;;12.90;;
11151;SDS011;5630;49.342;10.802;2023-04-07T09:49:33;13.83;;;12.33;;
11151;SDS011;5630;49.342;10.802;2023-04-07T09:52:21;16.27;;;12.83;;
11151;SDS011;5630;49.342;10.802;2023-04-07T09:54:50;13.63;;;11.97;;
11151;SDS011;5630;49.342;10.802;2023-04-07T09:57:16;13.90;;;12.37;;
11151;SDS011;5630;49.342;10.802;2023-04-07T09:59:43;14.40;;;12.23;;
11151;SDS011;5630;49.342;10.802;2023-04-07T10:02:09;13.93;;;12.30;;
11151;SDS011;5630;49.342;10.802;2023-04-07T10:04:35;14.90;;;13.33;;
11151;SDS011;5630;49.342;10.802;2023-04-07T10:07:02;14.17;;;12.67;;
11151;SDS011;5630;49.342;10.802;2023-04-07T10:09:29;14.23;;;12.73;;
11151;SDS011;5630;49.342;10.802;2023-04-07T10:11:56;16.50;;;13.10;;
11151;SDS011;5630;49.342;10.802;2023-04-07T10:14:25;14.27;;;12.27;;
11151;SDS011;5630;49.342;10.802;2023-04-07T10:16:52;14.13;;;11.93;;
11151;SDS011;5630;49.342;10.802;2023-04-07T10:19:18;13.63;;;12.23;;
11151;SDS011;5630;49.342;10.802;2023-04-07T10:21:44;14.20;;;12.70;;
11151;SDS011;5630;49.342;10.802;2023-04-07T10:24:18;13.80;;;12.37;;
11151;SDS011;5630;49.342;10.802;2023-04-07T10:26:58;14.90;;;13.00;;
11151;SDS011;5630;49.342;10.802;2023-04-07T10:29:28;15.00;;;12.60;;
11151;SDS011;5630;49.342;10.802;2023-04-07T10:31:58;14.67;;;13.03;;
11151;SDS011;5630;49.342;10.802;2023-04-07T10:37:20;13.13;;;11.70;;
11151;SDS011;5630;49.342;10.802;2023-04-07T10:39:50;14.50;;;13.00;;
11151;SDS011;5630;49.342;10.802;2023-04-07T10:45:02;15.50;;;13.90;;
11151;SDS011;5630;49.342;10.802;2023-04-07T10:47:28;19.13;;;13.00;;
11151;SDS011;5630;49.342;10.802;2023-04-07T10:52:40;16.77;;;12.70;;
11151;SDS011;5630;49.342;10.802;2023-04-07T11:03:43;15.23;;;10.90;;
11151;SDS011;5630;49.342;10.802;2023-04-07T11:06:18;13.60;;;11.23;;
11151;SDS011;5630;49.342;10.802;2023-04-07T11:08:44;13.80;;;12.23;;
11151;SDS011;5630;49.342;10.802;2023-04-07T11:11:12;13.50;;;12.10;;
11151;SDS011;5630;49.342;10.802;2023-04-07T11:13:57;11.53;;;10.33;;
11151;SDS011;5630;49.342;10.802;2023-04-07T11:16:34;13.77;;;12.37;;
11151;SDS011;5630;49.342;10.802;2023-04-07T11:19:01;14.53;;;13.03;;
11151;SDS011;5630;49.342;10.802;2023-04-07T11:21:26;15.40;;;11.20;;
11151;SDS011;5630;49.342;10.802;2023-04-07T11:23:52;14.60;;;12.33;;
11151;SDS011;5630;49.342;10.802;2023-04-07T11:26:17;13.50;;;11.67;;
11151;SDS011;5630;49.342;10.802;2023-04-07T11:28:47;12.53;;;10.93;;
11151;SDS011;5630;49.342;10.802;2023-04-07T11:33:56;13.60;;;11.20;;
11151;SDS011;5630;49.342;10.802;2023-04-07T11:36:28;13.43;;;11.43;;
11151;SDS011;5630;49.342;10.802;2023-04-07T11:38:58;11.97;;;10.70;;
11151;SDS011;5630;49.342;10.802;2023-04-07T11:41:28;13.37;;;10.67;;
11151;SDS011;5630;49.342;10.802;2023-04-07T11:46:30;12.23;;;10.90;;
11151;SDS011;5630;49.342;10.802;2023-04-07T11:49:06;11.60;;;10.40;;
11151;SDS011;5630;49.342;10.802;2023-04-07T11:51:36;11.27;;;10.17;;
11151;SDS011;5630;49.342;10.802;2023-04-07T11:54:02;12.27;;;10.40;;
11151;SDS011;5630;49.342;10.802;2023-04-07T11:56:28;11.50;;;10.33;;
11151;SDS011;5630;49.342;10.802;2023-04-07T11:58:54;11.67;;;10.47;;
11151;SDS011;5630;49.342;10.802;2023-04-07T12:01:20;13.10;;;10.50;;
11151;SDS011;5630;49.342;10.802;2023-04-07T12:03:56;11.03;;;9.93;;
11151;SDS011;5630;49.342;10.802;2023-04-07T12:06:34;11.23;;;10.03;;
11151;SDS011;5630;49.342;10.802;2023-04-07T12:09:03;12.57;;;10.40;;
11151;SDS011;5630;49.342;10.802;2023-04-07T12:11:29;12.07;;;10.33;;
11151;SDS011;5630;49.342;10.802;2023-04-07T12:13:56;10.23;;;9.13;;
11151;SDS011;5630;49.342;10.802;2023-04-07T12:16:22;12.27;;;10.97;;
11151;SDS011;5630;49.342;10.802;2023-04-07T12:18:48;11.93;;;10.47;;
11151;SDS011;5630;49.342;10.802;2023-04-07T12:21:15;14.83;;;10.53;;
11151;SDS011;5630;49.342;10.802;2023-04-07T12:23:41;12.53;;;10.13;;
11151;SDS011;5630;49.342;10.802;2023-04-07T12:26:07;10.83;;;9.73;;
11151;SDS011;5630;49.342;10.802;2023-04-07T12:28:32;9.90;;;8.37;;
11151;SDS011;5630;49.342;10.802;2023-04-07T12:30:58;12.30;;;9.27;;
11151;SDS011;5630;49.342;10.802;2023-04-07T12:33:24;9.53;;;8.50;;
11151;SDS011;5630;49.342;10.802;2023-04-07T12:35:49;10.93;;;9.77;;
11151;SDS011;5630;49.342;10.802;2023-04-07T12:38:15;9.80;;;8.80;;
11151;SDS011;5630;49.342;10.802;2023-04-07T12:40:41;10.10;;;8.10;;
11151;SDS011;5630;49.342;10.802;2023-04-07T12:43:07;9.33;;;8.40;;
11151;SDS011;5630;49.342;10.802;2023-04-07T12:45:33;9.87;;;8.87;;
11151;SDS011;5630;49.342;10.802;2023-04-07T12:47:59;11.43;;;8.70;;
11151;SDS011;5630;49.342;10.802;2023-04-07T12:50:24;9.17;;;8.27;;
11151;SDS011;5630;49.342;10.802;2023-04-07T12:52:50;10.43;;;9.43;;
11151;SDS011;5630;49.342;10.802;2023-04-07T12:55:17;10.53;;;9.23;;
11151;SDS011;5630;49.342;10.802;2023-04-07T12:57:43;12.53;;;8.60;;
11151;SDS011;5630;49.342;10.802;2023-04-07T13:00:08;9.57;;;8.57;;
11151;SDS011;5630;49.342;10.802;2023-04-07T13:02:34;11.10;;;8.60;;
11151;SDS011;5630;49.342;10.802;2023-04-07T13:05:01;8.37;;;7.57;;
11151;SDS011;5630;49.342;10.802;2023-04-07T13:07:27;8.03;;;7.23;;
11151;SDS011;5630;49.342;10.802;2023-04-07T13:09:53;7.73;;;6.93;;
11151;SDS011;5630;49.342;10.802;2023-04-07T13:12:18;7.80;;;7.07;;
11151;SDS011;5630;49.342;10.802;2023-04-07T13:14:45;8.67;;;7.77;;
11151;SDS011;5630;49.342;10.802;2023-04-07T13:17:10;11.17;;;9.03;;
11151;SDS011;5630;49.342;10.802;2023-04-07T13:19:36;10.50;;;9.37;;
11151;SDS011;5630;49.342;10.802;2023-04-07T13:22:02;15.17;;;12.73;;
11151;SDS011;5630;49.342;10.802;2023-04-07T13:24:27;13.57;;;9.83;;
11151;SDS011;5630;49.342;10.802;2023-04-07T13:26:53;10.47;;;9.13;;
11151;SDS011;5630;49.342;10.802;2023-04-07T13:29:18;11.27;;;9.43;;
11151;SDS011;5630;49.342;10.802;2023-04-07T13:31:44;10.13;;;9.03;;
11151;SDS011;5630;49.342;10.802;2023-04-07T13:34:10;10.50;;;9.37;;
11151;SDS011;5630;49.342;10.802;2023-04-07T13:36:36;12.13;;;10.00;;
11151;SDS011;5630;49.342;10.802;2023-04-07T13:39:02;8.60;;;7.73;;
11151;SDS011;5630;49.342;10.802;2023-04-07T13:41:27;26.27;;;17.33;;
11151;SDS011;5630;49.342;10.802;2023-04-07T13:43:53;13.20;;;9.53;;
11151;SDS011;5630;49.342;10.802;2023-04-07T13:46:18;9.87;;;8.10;;
11151;SDS011;5630;49.342;10.802;2023-04-07T13:48:44;13.27;;;11.00;;
11151;SDS011;5630;49.342;10.802;2023-04-07T13:51:10;17.80;;;11.73;;
11151;SDS011;5630;49.342;10.802;2023-04-07T13:53:36;12.10;;;9.83;;
11151;SDS011;5630;49.342;10.802;2023-04-07T13:56:01;12.50;;;11.20;;
11151;SDS011;5630;49.342;10.802;2023-04-07T13:58:27;14.57;;;12.00;;
11151;SDS011;5630;49.342;10.802;2023-04-07T14:00:53;12.80;;;11.10;;
11151;SDS011;5630;49.342;10.802;2023-04-07T14:03:20;17.63;;;14.50;;
11151;SDS011;5630;49.342;10.802;2023-04-07T14:05:46;14.87;;;11.17;;
11151;SDS011;5630;49.342;10.802;2023-04-07T14:08:12;13.13;;;11.80;;
11151;SDS011;5630;49.342;10.802;2023-04-07T14:10:38;9.33;;;8.37;;
11151;SDS011;5630;49.342;10.802;2023-04-07T14:13:04;10.80;;;9.70;;
11151;SDS011;5630;49.342;10.802;2023-04-07T14:15:30;9.63;;;8.63;;
11151;SDS011;5630;49.342;10.802;2023-04-07T14:17:57;9.57;;;8.57;;
11151;SDS011;5630;49.342;10.802;2023-04-07T14:20:24;14.20;;;12.80;;
11151;SDS011;5630;49.342;10.802;2023-04-07T14:22:50;10.57;;;9.47;;
11151;SDS011;5630;49.342;10.802;2023-04-07T14:25:16;9.13;;;8.23;;
11151;SDS011;5630;49.342;10.802;2023-04-07T14:27:41;11.73;;;10.53;;
11151;SDS011;5630;49.342;10.802;2023-04-07T14:30:07;9.57;;;8.13;;
11151;SDS011;5630;49.342;10.802;2023-04-07T14:32:33;9.97;;;8.33;;
11151;SDS011;5630;49.342;10.802;2023-04-07T14:34:59;8.67;;;7.17;;
11151;SDS011;5630;49.342;10.802;2023-04-07T14:37:25;8.93;;;7.27;;
11151;SDS011;5630;49.342;10.802;2023-04-07T14:39:52;11.07;;;7.73;;
11151;SDS011;5630;49.342;10.802;2023-04-07T14:42:18;9.87;;;8.13;;
11151;SDS011;5630;49.342;10.802;2023-04-07T14:44:44;11.30;;;7.90;;
11151;SDS011;5630;49.342;10.802;2023-04-07T14:47:09;9.73;;;7.87;;